Time;durP1;ratioP1;P1;durP2;ratioP2;P2;SDS_P1;SDS_P2;PMS_P1;PMS_P2;Temp;Humidity;BMP_temperature;BMP_pressure;BME280_temperature;BME280_humidity;BME280_pressure;Samples;Min_cycle;Max_cycle;Signal;HPM_P1;HPM_P2
2021/09/26 00:04:37;;;;;;;8.98;6.97;;;;;;;;;;10421455;28;20025;-88
2021/09/26 00:09:38;;;;;;;7.75;6.95;;;;;;;;;;10421793;28;20083;-89
2021/09/26 00:14:39;;;;;;;7.78;6.90;;;;;;;;;;10421214;28;20552;-88
2021/09/26 00:19:40;;;;;;;8.48;7.68;;;;;;;;;;10420260;28;20040;-88
2021/09/26 00:24:41;;;;;;;10.07;9.00;;;;;;;;;;10420207;28;20537;-88
2021/09/26 00:29:42;;;;;;;8.88;7.82;;;;;;;;;;10419876;28;20040;-89
2021/09/26 01:59:11;;;;;;;7.75;6.63;;;;;;;;;;10406827;23;20045;-88
2021/09/26 02:04:30;;;;;;;8.65;7.60;;;;;;;;;;10371172;28;20045;-89
2021/09/26 02:09:31;;;;;;;9.50;8.20;;;;;;;;;;10363118;28;20060;-88
2021/09/26 02:14:32;;;;;;;7.95;7.13;;;;;;;;;;10360063;28;20112;-88
2021/09/26 02:19:54;;;;;;;9.15;7.35;;;;;;;;;;10358956;28;20129;-88
2021/09/26 02:24:55;;;;;;;7.55;6.63;;;;;;;;;;10358827;28;20152;-88
2021/09/26 02:29:56;;;;;;;7.78;6.90;;;;;;;;;;10359327;28;20030;-88
2021/09/26 02:34:57;;;;;;;7.95;6.70;;;;;;;;;;10360219;28;20121;-88
2021/09/26 02:39:58;;;;;;;7.15;6.35;;;;;;;;;;10359017;28;20042;-88
2021/09/26 02:45:02;;;;;;;7.25;6.55;;;;;;;;;;10360864;28;20068;-88
2021/09/26 02:50:03;;;;;;;7.03;5.97;;;;;;;;;;10358090;28;20069;-88
2021/09/26 02:55:05;;;;;;;7.32;6.60;;;;;;;;;;10359277;28;20053;-88
2021/09/26 03:00:06;;;;;;;7.63;6.43;;;;;;;;;;10358815;28;20076;-88
2021/09/26 03:05:08;;;;;;;7.53;6.82;;;;;;;;;;10357586;28;20041;-88
2021/09/26 03:10:09;;;;;;;7.10;6.40;;;;;;;;;;10367024;28;20097;-88
2021/09/26 03:15:10;;;;;;;7.15;6.13;;;;;;;;;;10386905;28;20026;-88
2021/09/26 03:20:12;;;;;;;6.22;5.63;;;;;;;;;;10365025;28;20036;-88
2021/09/26 03:25:13;;;;;;;7.30;6.60;;;;;;;;;;10364848;28;20056;-88
2021/09/26 03:30:14;;;;;;;6.63;5.93;;;;;;;;;;10364443;28;20033;-88
2021/09/26 03:35:16;;;;;;;7.55;6.75;;;;;;;;;;10364919;28;20045;-88
2021/09/26 03:40:17;;;;;;;6.85;6.15;;;;;;;;;;10364738;28;20030;-88
2021/09/26 03:45:18;;;;;;;6.35;5.68;;;;;;;;;;10364468;28;20034;-88
2021/09/26 03:50:19;;;;;;;10.30;7.45;;;;;;;;;;10364189;28;20084;-89
2021/09/26 03:55:23;;;;;;;6.47;5.88;;;;;;;;;;10381708;28;20034;-89
2021/09/26 04:00:24;;;;;;;6.35;5.75;;;;;;;;;;10364305;28;20407;-88
2021/09/26 04:05:25;;;;;;;7.22;6.53;;;;;;;;;;10381076;28;20046;-88
2021/09/26 04:10:26;;;;;;;6.90;6.15;;;;;;;;;;10364959;28;20057;-89
2021/09/26 04:15:27;;;;;;;5.90;5.30;;;;;;;;;;10363492;28;20381;-88
2021/09/26 04:20:34;;;;;;;6.20;5.60;;;;;;;;;;10363036;28;20096;-88
2021/09/26 04:25:35;;;;;;;7.20;5.97;;;;;;;;;;10363650;28;20041;-89
2021/09/26 04:30:36;;;;;;;7.05;6.35;;;;;;;;;;10362523;28;20041;-88
2021/09/26 04:35:40;;;;;;;6.03;5.53;;;;;;;;;;10362487;28;20037;-88
2021/09/26 04:40:41;;;;;;;6.90;6.20;;;;;;;;;;10363281;28;20033;-88
2021/09/26 04:45:42;;;;;;;6.65;5.95;;;;;;;;;;10366224;28;20037;-89
2021/09/26 04:51:01;;;;;;;6.20;5.40;;;;;;;;;;10367872;28;20061;-88
2021/09/26 04:56:02;;;;;;;6.15;5.55;;;;;;;;;;10364082;28;20092;-88
2021/09/26 05:01:03;;;;;;;5.75;5.15;;;;;;;;;;10362984;28;20100;-88
2021/09/26 05:06:04;;;;;;;5.55;5.05;;;;;;;;;;10366025;28;20041;-88
2021/09/26 05:11:05;;;;;;;6.68;5.97;;;;;;;;;;10364185;28;20484;-88
2021/09/26 05:16:06;;;;;;;6.65;5.82;;;;;;;;;;10363326;28;20033;-88
2021/09/26 05:21:07;;;;;;;6.35;5.22;;;;;;;;;;10361729;28;20034;-88
2021/09/26 05:26:08;;;;;;;5.20;4.70;;;;;;;;;;10362176;28;20128;-88
2021/09/26 05:31:09;;;;;;;7.38;5.50;;;;;;;;;;10360522;28;20142;-88
2021/09/26 05:36:10;;;;;;;6.60;6.00;;;;;;;;;;10362070;28;20080;-88
2021/09/26 05:41:11;;;;;;;6.22;5.63;;;;;;;;;;10362053;28;20068;-88
2021/09/26 05:46:12;;;;;;;6.85;6.15;;;;;;;;;;10363874;28;20034;-88
2021/09/26 05:51:13;;;;;;;5.53;5.03;;;;;;;;;;10362332;28;20128;-88
2021/09/26 05:56:34;;;;;;;5.55;5.05;;;;;;;;;;10363690;28;20551;-88
2021/09/26 06:01:35;;;;;;;7.15;5.38;;;;;;;;;;10359500;28;20041;-88
2021/09/26 06:06:36;;;;;;;6.28;5.68;;;;;;;;;;10384614;28;20052;-87
2021/09/26 06:11:37;;;;;;;5.75;5.22;;;;;;;;;;10381948;28;20073;-88
2021/09/26 06:16:38;;;;;;;6.43;5.82;;;;;;;;;;10358663;28;20038;-88
2021/09/26 06:21:43;;;;;;;6.10;5.25;;;;;;;;;;10376148;28;20042;-89
2021/09/26 06:26:44;;;;;;;6.50;5.90;;;;;;;;;;10362743;28;20061;-89
2021/09/26 06:31:48;;;;;;;5.63;5.00;;;;;;;;;;10360863;28;20034;-88
2021/09/26 06:36:49;;;;;;;6.95;6.35;;;;;;;;;;10383480;28;20030;-89
2021/09/26 06:41:50;;;;;;;5.93;5.35;;;;;;;;;;10359963;28;20044;-87
2021/09/26 06:47:20;;;;;;;5.82;5.07;;;;;;;;;;10368861;28;20038;-88
2021/09/26 06:58:15;;;;;;;6.63;6.03;;;;;;;;;;10388232;28;20137;-89
2021/09/26 07:03:38;;;;;;;6.68;5.75;;;;;;;;;;10368368;28;20045;-88
2021/09/26 07:08:46;;;;;;;5.50;5.00;;;;;;;;;;10400278;28;20038;-88
2021/09/26 07:13:48;;;;;;;6.10;5.50;;;;;;;;;;10367993;28;20049;-88
2021/09/26 07:18:49;;;;;;;6.65;5.97;;;;;;;;;;10365963;28;20168;-88
2021/09/26 07:23:51;;;;;;;5.30;4.80;;;;;;;;;;10365812;28;20062;-88
2021/09/26 07:28:52;;;;;;;6.82;5.20;;;;;;;;;;10369563;28;20465;-89
2021/09/26 07:33:53;;;;;;;8.60;6.88;;;;;;;;;;10367969;28;20038;-88
2021/09/26 07:38:54;;;;;;;5.90;5.25;;;;;;;;;;10389515;28;20049;-88
2021/09/26 07:43:55;;;;;;;5.93;5.32;;;;;;;;;;10397145;28;20098;-89
2021/09/26 07:48:59;;;;;;;5.15;4.65;;;;;;;;;;10397539;28;20033;-88
2021/09/26 07:54:00;;;;;;;5.32;4.82;;;;;;;;;;10394795;28;20041;-89
2021/09/26 07:59:01;;;;;;;5.85;5.25;;;;;;;;;;10395707;28;20038;-89
2021/09/26 08:04:02;;;;;;;5.97;5.38;;;;;;;;;;10397650;28;20034;-89
2021/09/26 08:09:04;;;;;;;5.93;5.32;;;;;;;;;;10396076;28;20052;-89
2021/09/26 08:14:07;;;;;;;7.18;5.50;;;;;;;;;;10394305;28;20037;-88
2021/09/26 08:19:08;;;;;;;7.15;6.00;;;;;;;;;;10393316;28;20037;-89
2021/09/26 08:24:10;;;;;;;7.90;6.53;;;;;;;;;;10369760;28;20396;-87
2021/09/26 08:29:11;;;;;;;7.03;5.90;;;;;;;;;;10362963;28;20088;-88
2021/09/26 08:34:12;;;;;;;5.80;5.20;;;;;;;;;;10382769;28;20127;-88
2021/09/26 08:39:13;;;;;;;6.95;6.20;;;;;;;;;;10364879;28;20030;-88
2021/09/26 08:44:15;;;;;;;6.60;6.00;;;;;;;;;;10363679;28;20080;-88
2021/09/26 08:49:16;;;;;;;7.75;6.15;;;;;;;;;;10363102;28;20097;-88
2021/09/26 08:54:17;;;;;;;7.38;6.43;;;;;;;;;;10364136;28;20124;-88
2021/09/26 08:59:18;;;;;;;6.35;5.75;;;;;;;;;;10364752;28;20057;-88
2021/09/26 09:04:33;;;;;;;6.53;5.93;;;;;;;;;;10363471;28;20046;-88
2021/09/26 09:09:47;;;;;;;6.05;5.45;;;;;;;;;;10388412;28;20392;-89
2021/09/26 09:15:00;;;;;;;6.63;6.03;;;;;;;;;;10409405;28;20069;-89
2021/09/26 09:20:22;;;;;;;6.72;5.93;;;;;;;;;;10371231;28;20038;-88
2021/09/26 09:25:35;;;;;;;7.53;5.90;;;;;;;;;;10365916;28;20125;-88
2021/09/26 09:30:41;;;;;;;7.97;5.90;;;;;;;;;;10377843;28;20052;-88
2021/09/26 09:35:44;;;;;;;6.78;5.82;;;;;;;;;;10387159;28;20036;-88
2021/09/26 09:40:47;;;;;;;8.85;6.43;;;;;;;;;;10361449;28;20096;-88
2021/09/26 09:45:54;;;;;;;9.93;7.28;;;;;;;;;;10362548;28;20058;-88
2021/09/26 09:50:58;;;;;;;6.80;6.10;;;;;;;;;;10363407;28;20049;-88
2021/09/26 09:56:01;;;;;;;7.38;6.30;;;;;;;;;;10363331;28;20057;-88
2021/09/26 10:01:06;;;;;;;6.20;5.60;;;;;;;;;;10363862;28;20050;-88
2021/09/26 10:06:25;;;;;;;8.23;5.88;;;;;;;;;;10366727;28;20049;-89
2021/09/26 10:11:27;;;;;;;6.13;5.45;;;;;;;;;;10362457;28;20096;-89
2021/09/26 10:16:28;;;;;;;6.20;5.60;;;;;;;;;;10380283;28;20026;-87
2021/09/26 10:21:31;;;;;;;9.27;6.32;;;;;;;;;;10400641;28;20038;-88
2021/09/26 10:26:32;;;;;;;6.63;5.50;;;;;;;;;;10372949;28;20176;-90
2021/09/26 10:31:34;;;;;;;6.45;5.78;;;;;;;;;;10367722;28;20049;-90
2021/09/26 10:36:36;;;;;;;6.80;5.78;;;;;;;;;;10370813;28;20070;-89
2021/09/26 10:41:57;;;;;;;6.72;5.63;;;;;;;;;;10374297;28;20112;-90
2021/09/26 10:47:09;;;;;;;6.15;5.30;;;;;;;;;;10370945;28;20496;-89
2021/09/26 10:52:31;;;;;;;8.57;5.90;;;;;;;;;;10404125;28;20053;-89
2021/09/26 10:57:33;;;;;;;9.43;5.32;;;;;;;;;;10378807;28;20042;-89
2021/09/26 11:02:38;;;;;;;7.45;5.70;;;;;;;;;;10370749;28;20037;-89
2021/09/26 11:07:45;;;;;;;6.25;5.63;;;;;;;;;;10372067;28;20042;-89
